Ana Sayfa
METAR-TAF:

METAR-TAF

Havaalanları :

South Jersey Regional Airport

Mount Holly, New Jersey, Amerika Birleşik Devletleri

Enlem: 39-56-26N, Boylam: 074-50-28W, yükseklik: 16 m

Güncel hava durumu gözlemi

Rapor saat 18:54 UTC de 59 dakika önce yapıldı.
Rüzgar güneybatıdan 5 kt
Sıcaklık 29°C
Nem 66%
Basınç 1012 hPa
Görüş mesafesi: 16.1 km
4900 ft yükseklikte az bulutlu
6000 ft yükseklikte parçalı çok bulutlu
8000 ft yükseklikte parçalı çok bulutlu

METAR: KVAY 051854Z AUTO 22005KT 10SM FEW049 BKN060 BKN080 29/22 A2987 RMK AO2 SLP113 T02940217

Saat: 15:53 (19:53 UTC)


TAF: eksik

4.000'den fazla havaalanı için hava durumu gözlemleri ve tahminleri (METAR ve TAF raporları).

Kullanılabilir istasyonlar harita üzerinde sarı ve kırmızı noktalarla gösterilir.

İstasyonun adını görmek için fareyi noktanın üzerinde gezdirin.

Sonrasında hava gözlem ve tahminlerini görmek için tıklayın.

Haritayı değiştirmek için: yaklaştırmak için siyah artı işaretli yeşil düğmeye ve uzaklaştırmak için de eksi işaretli düğmeye hızla tıklayın; bitişik haritalar için yeşil okları kullanın.


METAR-TAF: